Time;durP1;ratioP1;P1;durP2;ratioP2;P2;SDS_P1;SDS_P2;PMS_P1;PMS_P2;Temp;Humidity;BMP_temperature;BMP_pressure;BME280_temperature;BME280_humidity;BME280_pressure;Samples;Min_cycle;Max_cycle;Signal;HPM_P1;HPM_P2
2023/03/27 00:00:28;;;;;;;2.78;2.50;;;12.20;46.70;;;;;;5035114;28;20201;-51
2023/03/27 00:02:53;;;;;;;3.65;2.53;;;12.90;47.10;;;;;;5035140;28;20261;-48
2023/03/27 00:05:20;;;;;;;2.90;2.47;;;13.00;47.00;;;;;;5035085;28;20212;-48
2023/03/27 00:07:47;;;;;;;5.05;3.53;;;12.90;47.00;;;;;;5035054;28;20201;-50
2023/03/27 00:10:14;;;;;;;2.55;2.10;;;12.90;47.10;;;;;;5035228;28;20186;-51
2023/03/27 00:12:40;;;;;;;5.00;3.03;;;13.10;47.40;;;;;;5035212;28;20181;-49
2023/03/27 00:15:07;;;;;;;3.03;2.55;;;12.80;47.40;;;;;;5034765;28;20202;-50
2023/03/27 00:17:33;;;;;;;4.00;2.80;;;12.80;47.40;;;;;;5034635;28;20228;-51
2023/03/27 00:19:59;;;;;;;4.50;2.97;;;12.80;47.60;;;;;;5034973;28;20193;-48
2023/03/27 00:22:25;;;;;;;3.20;2.70;;;12.80;47.40;;;;;;5035112;28;20170;-50
2023/03/27 00:24:50;;;;;;;4.00;3.57;;;12.80;47.40;;;;;;5034763;28;20650;-51
2023/03/27 00:27:16;;;;;;;3.40;2.57;;;12.90;47.40;;;;;;5034341;28;20193;-48
2023/03/27 00:29:42;;;;;;;3.40;3.10;;;12.90;47.30;;;;;;5034548;28;20646;-48
2023/03/27 00:32:08;;;;;;;3.55;3.20;;;13.00;47.20;;;;;;5034863;28;20219;-50
2023/03/27 00:34:34;;;;;;;7.85;4.65;;;13.00;47.40;;;;;;5033259;28;20212;-50
2023/03/27 00:37:00;;;;;;;5.60;4.43;;;12.90;47.30;;;;;;5034606;28;20174;-48
2023/03/27 00:39:27;;;;;;;7.70;4.40;;;12.90;47.40;;;;;;5034398;28;20194;-50
2023/03/27 00:41:54;;;;;;;5.70;4.90;;;13.00;47.40;;;;;;5034698;28;20178;-50
2023/03/27 00:44:23;;;;;;;4.90;3.75;;;12.90;47.20;;;;;;5034304;28;20239;-48
2023/03/27 00:46:50;;;;;;;4.90;3.30;;;13.00;47.30;;;;;;5034321;28;20213;-50
2023/03/27 00:49:16;;;;;;;4.38;3.42;;;12.90;46.60;;;;;;5049580;28;20202;-51
2023/03/27 00:51:45;;;;;;;11.60;4.65;;;12.80;45.60;;;;;;5034582;28;20188;-48
2023/03/27 00:54:15;;;;;;;12.00;4.38;;;12.50;44.70;;;;;;5034258;28;20205;-48
2023/03/27 00:56:42;;;;;;;9.98;5.47;;;12.30;44.90;;;;;;5034114;28;20180;-51
2023/03/27 00:59:12;;;;;;;7.85;4.20;;;12.00;44.80;;;;;;5034338;28;20511;-50
2023/03/27 01:01:39;;;;;;;11.20;4.35;;;11.70;45.20;;;;;;5034350;28;20179;-48
2023/03/27 01:04:07;;;;;;;9.35;4.95;;;11.40;45.50;;;;;;5034084;28;20173;-50
2023/03/27 01:06:33;;;;;;;7.80;4.13;;;11.30;46.20;;;;;;5033777;28;20178;-50
2023/03/27 01:08:59;;;;;;;8.85;3.70;;;11.20;46.10;;;;;;5033858;28;20763;-49
2023/03/27 01:11:30;;;;;;;6.67;3.30;;;11.00;45.80;;;;;;5033774;28;20174;-48
2023/03/27 01:14:22;;;;;;;7.85;4.07;;;10.80;45.70;;;;;;5033937;28;20670;-50
2023/03/27 01:17:07;;;;;;;10.23;3.72;;;10.60;45.60;;;;;;5033837;28;20182;-51
2023/03/27 01:19:37;;;;;;;5.35;3.42;;;10.40;46.10;;;;;;5033764;28;20202;-48
2023/03/27 01:22:27;;;;;;;8.55;3.67;;;10.30;46.10;;;;;;5032456;28;20170;-51
2023/03/27 01:25:36;;;;;;;10.05;4.85;;;10.10;45.90;;;;;;5033805;28;20228;-48
2023/03/27 01:28:39;;;;;;;6.40;3.78;;;10.00;46.20;;;;;;5031759;28;20210;-51
2023/03/27 01:31:23;;;;;;;5.68;2.60;;;9.90;46.30;;;;;;5033556;28;20181;-50
2023/03/27 01:34:08;;;;;;;9.05;2.25;;;9.80;46.20;;;;;;5033560;28;20189;-47
2023/03/27 01:36:46;;;;;;;7.47;2.53;;;9.80;46.20;;;;;;5033500;28;20207;-49
2023/03/27 01:39:33;;;;;;;4.90;2.17;;;9.60;45.90;;;;;;5033481;28;20194;-47
2023/03/27 01:42:18;;;;;;;14.18;4.53;;;9.60;46.00;;;;;;5033288;28;20538;-50
2023/03/27 01:45:02;;;;;;;7.82;2.92;;;9.50;45.70;;;;;;5032702;28;20622;-50
2023/03/27 01:47:40;;;;;;;6.97;3.03;;;9.40;45.60;;;;;;5033259;28;20208;-47
2023/03/27 01:50:18;;;;;;;7.45;2.40;;;9.30;45.40;;;;;;5033213;28;20261;-50
2023/03/27 01:52:52;;;;;;;11.35;2.70;;;9.20;45.50;;;;;;5033198;28;20546;-47
2023/03/27 01:55:24;;;;;;;6.63;3.20;;;9.40;45.80;;;;;;5032970;28;20282;-50
2023/03/27 01:57:59;;;;;;;7.05;3.60;;;9.10;45.70;;;;;;5033035;28;20248;-48
2023/03/27 02:00:26;;;;;;;8.73;2.25;;;9.20;45.70;;;;;;5033109;28;20189;-48
2023/03/27 02:02:59;;;;;;;8.48;2.50;;;9.10;45.70;;;;;;5032893;28;20177;-50
2023/03/27 02:05:40;;;;;;;7.47;3.50;;;9.20;45.80;;;;;;5032798;28;20690;-50
2023/03/27 02:08:13;;;;;;;7.82;3.28;;;9.20;46.00;;;;;;5032578;28;20193;-47
2023/03/27 02:10:43;;;;;;;7.88;2.53;;;9.30;45.70;;;;;;5032724;28;20180;-50
2023/03/27 02:13:33;;;;;;;4.25;2.42;;;9.30;45.20;;;;;;5032795;28;20649;-50
2023/03/27 02:16:00;;;;;;;10.00;3.75;;;9.20;45.10;;;;;;5032877;28;20666;-48
2023/03/27 02:18:35;;;;;;;8.48;4.18;;;9.20;45.20;;;;;;5032763;28;20300;-47
2023/03/27 02:21:02;;;;;;;8.55;2.70;;;9.20;45.30;;;;;;5032799;28;20184;-50
2023/03/27 02:23:29;;;;;;;8.80;2.90;;;9.20;45.30;;;;;;5032877;28;20268;-47
2023/03/27 02:25:56;;;;;;;8.57;1.88;;;9.20;44.90;;;;;;5032479;28;20202;-49
2023/03/27 02:29:00;;;;;;;6.38;2.15;;;9.10;45.00;;;;;;5032098;28;20781;-49
2023/03/27 02:31:38;;;;;;;5.90;2.97;;;9.10;44.90;;;;;;5031101;28;20662;-49
2023/03/27 02:34:42;;;;;;;5.50;2.15;;;9.20;44.80;;;;;;5032473;28;20291;-49
2023/03/27 02:37:27;;;;;;;4.85;2.17;;;9.10;44.70;;;;;;5032093;28;20184;-50
2023/03/27 02:40:09;;;;;;;4.90;2.10;;;9.10;45.00;;;;;;5032558;28;20184;-49
2023/03/27 02:42:59;;;;;;;3.30;2.05;;;9.10;44.90;;;;;;5032340;28;20176;-50
2023/03/27 02:45:44;;;;;;;6.20;2.70;;;9.10;44.80;;;;;;5032276;28;20228;-50
2023/03/27 02:48:26;;;;;;;6.20;3.22;;;9.10;45.00;;;;;;5031884;28;20256;-50
2023/03/27 02:51:21;;;;;;;4.07;2.63;;;9.00;44.70;;;;;;5032405;28;20177;-49
2023/03/27 02:53:58;;;;;;;7.28;3.05;;;9.00;45.30;;;;;;5032160;28;20202;-48
2023/03/27 02:56:27;;;;;;;4.25;2.88;;;9.00;45.30;;;;;;5031462;28;20509;-49
2023/03/27 02:58:59;;;;;;;6.78;3.40;;;9.10;45.30;;;;;;5032287;28;20205;-49
2023/03/27 03:01:26;;;;;;;18.50;3.83;;;9.10;45.10;;;;;;5032056;28;20231;-49
2023/03/27 03:04:03;;;;;;;8.80;3.60;;;9.20;45.10;;;;;;5031997;28;20190;-47
2023/03/27 03:06:29;;;;;;;6.28;2.60;;;9.20;45.00;;;;;;5031854;28;20164;-50
2023/03/27 03:09:01;;;;;;;9.23;3.20;;;9.10;45.00;;;;;;5032031;28;20201;-50
2023/03/27 03:11:28;;;;;;;6.90;3.33;;;9.20;45.00;;;;;;5032301;28;20162;-49
2023/03/27 03:13:54;;;;;;;6.70;3.78;;;9.10;45.10;;;;;;5031895;28;20169;-50
2023/03/27 03:16:21;;;;;;;11.10;3.92;;;9.10;45.00;;;;;;5031853;28;20204;-50
2023/03/27 03:18:48;;;;;;;6.50;3.63;;;9.10;45.10;;;;;;5032105;28;20200;-48
2023/03/27 03:21:14;;;;;;;6.55;2.60;;;9.10;45.30;;;;;;5031860;28;20168;-50
2023/03/27 03:23:40;;;;;;;4.57;3.10;;;9.10;45.10;;;;;;5031810;28;20178;-51
2023/03/27 03:26:06;;;;;;;7.63;3.53;;;9.20;45.00;;;;;;5031665;28;20220;-48
2023/03/27 03:28:35;;;;;;;8.82;3.28;;;9.20;45.10;;;;;;5031909;28;20205;-48
2023/03/27 03:31:04;;;;;;;7.80;3.45;;;9.10;45.10;;;;;;5031687;28;20299;-50
2023/03/27 03:33:30;;;;;;;2.67;2.47;;;9.20;45.20;;;;;;5031742;28;20673;-50
2023/03/27 03:36:00;;;;;;;9.25;3.42;;;9.20;45.30;;;;;;5031647;28;20291;-49
2023/03/27 03:38:28;;;;;;;8.52;3.78;;;9.20;45.40;;;;;;5031565;28;20600;-49
2023/03/27 03:40:58;;;;;;;9.25;3.85;;;9.20;45.30;;;;;;5031609;28;20172;-48
2023/03/27 03:43:30;;;;;;;6.50;4.03;;;9.20;45.20;;;;;;5031780;28;20181;-48
2023/03/27 03:45:59;;;;;;;5.32;2.67;;;9.20;45.20;;;;;;5031977;28;20253;-50
2023/03/27 03:48:25;;;;;;;8.93;4.22;;;9.30;45.30;;;;;;5031525;28;20233;-48
2023/03/27 03:50:51;;;;;;;6.47;3.20;;;9.30;45.50;;;;;;5031663;28;20230;-48
2023/03/27 03:53:19;;;;;;;8.23;3.65;;;9.30;45.30;;;;;;5031589;28;20188;-50
2023/03/27 03:55:48;;;;;;;7.25;3.20;;;9.30;45.40;;;;;;5031460;28;20193;-49
2023/03/27 03:58:14;;;;;;;7.25;5.03;;;9.40;45.50;;;;;;5031505;28;20209;-48
2023/03/27 04:00:40;;;;;;;15.17;3.30;;;9.40;45.50;;;;;;5031734;28;20507;-50
2023/03/27 04:03:08;;;;;;;7.53;4.80;;;9.50;46.30;;;;;;5031476;28;20801;-49
2023/03/27 04:05:36;;;;;;;5.18;3.50;;;9.50;45.60;;;;;;5031574;28;20174;-48
2023/03/27 04:08:02;;;;;;;7.07;3.45;;;9.50;45.40;;;;;;5034543;28;20200;-48
2023/03/27 04:10:28;;;;;;;14.32;4.20;;;9.50;45.40;;;;;;5035252;28;20261;-49
2023/03/27 04:12:55;;;;;;;12.70;4.70;;;9.50;45.30;;;;;;5035335;28;20320;-50
2023/03/27 04:15:20;;;;;;;8.80;3.42;;;9.50;45.20;;;;;;5035005;28;20455;-50
2023/03/27 04:17:50;;;;;;;8.93;4.23;;;9.50;45.00;;;;;;5034643;28;20197;-49
2023/03/27 04:20:16;;;;;;;9.65;5.03;;;9.60;45.00;;;;;;5034879;28;20832;-49
2023/03/27 04:22:47;;;;;;;7.90;3.35;;;9.60;45.20;;;;;;5035106;28;20187;-49
2023/03/27 04:25:16;;;;;;;9.35;3.78;;;9.60;45.00;;;;;;5034521;28;20205;-50
2023/03/27 04:27:43;;;;;;;7.70;2.58;;;9.60;44.70;;;;;;5034445;28;20691;-48
2023/03/27 04:30:12;;;;;;;5.93;2.53;;;9.60;44.50;;;;;;5034784;28;20178;-50
2023/03/27 04:32:39;;;;;;;7.28;3.42;;;9.60;44.40;;;;;;5034687;28;20189;-50
2023/03/27 04:35:05;;;;;;;4.70;3.50;;;9.60;44.30;;;;;;5034437;28;20205;-49
2023/03/27 04:37:31;;;;;;;5.05;2.15;;;9.60;45.00;;;;;;5034075;28;20559;-50
2023/03/27 04:39:57;;;;;;;5.93;2.77;;;9.60;44.40;;;;;;5034794;28;20254;-48
2023/03/27 04:42:23;;;;;;;7.65;2.50;;;9.60;44.20;;;;;;5034664;28;20251;-48
2023/03/27 04:44:51;;;;;;;10.57;3.40;;;9.50;44.40;;;;;;5034483;28;20654;-51
2023/03/27 04:47:17;;;;;;;14.23;3.15;;;9.50;44.30;;;;;;5034367;28;20242;-51
2023/03/27 04:49:45;;;;;;;7.68;3.53;;;9.50;44.20;;;;;;5034277;28;20186;-48
2023/03/27 04:52:13;;;;;;;2.92;2.42;;;9.50;44.30;;;;;;5032889;28;20261;-50
2023/03/27 04:54:40;;;;;;;6.00;3.40;;;9.50;44.40;;;;;;5034369;28;20635;-48
2023/03/27 04:57:06;;;;;;;5.95;3.22;;;9.50;44.50;;;;;;5033956;28;20172;-48
2023/03/27 04:59:32;;;;;;;4.82;2.40;;;9.40;44.30;;;;;;5034211;28;20184;-51
2023/03/27 05:02:00;;;;;;;7.72;3.63;;;9.40;44.40;;;;;;5034550;28;20173;-48
2023/03/27 05:04:27;;;;;;;5.22;2.42;;;9.40;44.30;;;;;;5034568;28;20196;-48
2023/03/27 05:06:54;;;;;;;4.82;3.40;;;9.40;44.60;;;;;;5033825;28;20315;-50
2023/03/27 05:09:21;;;;;;;5.65;2.90;;;9.30;44.30;;;;;;5034241;28;20275;-51
2023/03/27 05:11:50;;;;;;;8.15;2.60;;;9.30;44.30;;;;;;5034014;28;20709;-48
2023/03/27 05:14:21;;;;;;;6.95;2.85;;;9.20;44.30;;;;;;5033985;28;20290;-48
2023/03/27 05:16:51;;;;;;;4.32;2.05;;;9.20;44.20;;;;;;5033671;28;20169;-48
2023/03/27 05:19:18;;;;;;;6.93;2.42;;;9.20;44.30;;;;;;5032813;28;20204;-48
2023/03/27 05:21:45;;;;;;;7.30;2.80;;;9.10;44.50;;;;;;5033721;28;20581;-50
2023/03/27 05:24:12;;;;;;;6.13;2.90;;;9.20;44.50;;;;;;5033643;28;20681;-50
2023/03/27 05:26:38;;;;;;;7.97;3.30;;;9.10;44.20;;;;;;5033382;28;20210;-48
2023/03/27 05:29:04;;;;;;;9.23;3.40;;;9.10;44.10;;;;;;5033412;28;20194;-48
2023/03/27 05:31:34;;;;;;;6.50;2.30;;;9.10;44.30;;;;;;5033641;28;20216;-51
2023/03/27 05:34:01;;;;;;;6.28;2.72;;;9.10;44.20;;;;;;5033448;28;20178;-50
2023/03/27 05:36:28;;;;;;;5.15;2.60;;;9.10;44.40;;;;;;5033300;28;20176;-48
2023/03/27 05:38:56;;;;;;;4.50;2.55;;;9.10;44.30;;;;;;5033409;28;20251;-50
2023/03/27 05:41:23;;;;;;;6.45;3.08;;;9.10;44.30;;;;;;5033491;28;20245;-50
2023/03/27 05:43:50;;;;;;;4.13;2.70;;;9.10;44.40;;;;;;5033313;28;20181;-48
2023/03/27 05:46:16;;;;;;;4.03;2.70;;;9.00;44.30;;;;;;5033235;28;20193;-49
2023/03/27 05:48:42;;;;;;;3.72;2.30;;;9.00;44.30;;;;;;5033361;28;20203;-49
2023/03/27 05:51:08;;;;;;;4.70;2.73;;;8.90;44.30;;;;;;5033362;28;20534;-50
2023/03/27 05:53:36;;;;;;;11.90;2.40;;;8.90;44.20;;;;;;5033213;28;20547;-48
2023/03/27 05:56:02;;;;;;;3.00;1.80;;;8.90;44.20;;;;;;5032944;28;20483;-48
2023/03/27 05:58:28;;;;;;;3.97;2.13;;;8.90;44.30;;;;;;5032982;28;20225;-51
2023/03/27 06:00:54;;;;;;;3.90;2.20;;;8.90;44.30;;;;;;5032828;28;20762;-50
2023/03/27 06:03:20;;;;;;;9.93;2.77;;;8.90;44.20;;;;;;5032932;28;20258;-48
2023/03/27 06:05:47;;;;;;;8.23;2.67;;;8.90;44.00;;;;;;5033001;28;20612;-49
2023/03/27 06:08:13;;;;;;;5.72;2.65;;;8.90;44.10;;;;;;5032462;28;20438;-51
2023/03/27 06:10:40;;;;;;;5.00;2.73;;;8.90;44.20;;;;;;5032755;28;20178;-48
2023/03/27 06:13:10;;;;;;;5.15;2.83;;;8.80;44.10;;;;;;5033030;28;20263;-50
2023/03/27 06:15:39;;;;;;;3.38;2.47;;;8.80;44.10;;;;;;5032539;28;20220;-49
2023/03/27 06:18:05;;;;;;;5.22;2.35;;;8.80;43.90;;;;;;5032641;28;20227;-51
2023/03/27 06:20:34;;;;;;;4.85;2.70;;;8.80;43.80;;;;;;5032585;28;20170;-51
2023/03/27 06:23:01;;;;;;;3.47;2.80;;;8.80;43.90;;;;;;5032926;28;20174;-48
2023/03/27 06:25:33;;;;;;;7.60;3.90;;;8.80;44.00;;;;;;5032607;28;20266;-50
2023/03/27 06:28:00;;;;;;;5.82;2.95;;;8.80;44.00;;;;;;5032451;28;20197;-49
2023/03/27 06:30:26;;;;;;;2.92;2.10;;;8.90;44.00;;;;;;5032406;28;20183;-49
2023/03/27 06:32:56;;;;;;;5.90;2.85;;;8.90;43.90;;;;;;5032419;28;20176;-51
2023/03/27 06:35:23;;;;;;;4.43;3.70;;;8.90;44.20;;;;;;5032636;28;20206;-51
2023/03/27 06:37:52;;;;;;;3.65;2.42;;;9.00;44.00;;;;;;5032087;28;20747;-49
2023/03/27 06:40:23;;;;;;;6.85;3.55;;;9.00;43.50;;;;;;5032508;28;20621;-48
2023/03/27 06:43:03;;;;;;;4.30;2.75;;;9.00;43.10;;;;;;5032380;28;20229;-48
2023/03/27 06:45:41;;;;;;;4.05;2.92;;;9.00;43.00;;;;;;5032501;28;20190;-49
2023/03/27 06:48:07;;;;;;;4.00;2.58;;;9.00;43.20;;;;;;5032000;28;20201;-50
2023/03/27 06:50:34;;;;;;;3.70;2.55;;;9.10;43.20;;;;;;5032153;28;20650;-49
2023/03/27 06:53:00;;;;;;;3.85;2.08;;;9.10;42.90;;;;;;5032162;28;20181;-48
2023/03/27 06:55:28;;;;;;;3.70;2.40;;;9.10;42.20;;;;;;5032295;28;20243;-51
2023/03/27 06:57:55;;;;;;;7.05;2.67;;;9.10;41.50;;;;;;5031913;28;20196;-49
2023/03/27 07:00:28;;;;;;;3.47;2.22;;;9.10;41.70;;;;;;5032219;28;20176;-48
2023/03/27 07:02:58;;;;;;;2.30;1.95;;;9.10;40.30;;;;;;5032145;28;20177;-50
2023/03/27 07:05:26;;;;;;;6.63;2.72;;;9.10;40.20;;;;;;5031912;28;20838;-49
2023/03/27 07:07:53;;;;;;;2.63;1.80;;;9.00;40.10;;;;;;5031801;28;20628;-50
2023/03/27 07:10:20;;;;;;;3.35;1.98;;;9.00;39.90;;;;;;5031927;28;20219;-50
2023/03/27 07:12:53;;;;;;;4.10;1.90;;;9.00;39.30;;;;;;5032176;28;20178;-48
2023/03/27 07:15:19;;;;;;;2.03;1.20;;;9.00;39.20;;;;;;5031757;28;20208;-51
2023/03/27 07:17:59;;;;;;;2.63;2.40;;;9.00;38.50;;;;;;5031967;28;20228;-49
2023/03/27 07:20:26;;;;;;;2.08;1.00;;;9.10;38.70;;;;;;5031825;28;20260;-49
2023/03/27 07:22:57;;;;;;;4.40;2.03;;;9.10;37.80;;;;;;5031892;28;20170;-51
2023/03/27 07:25:24;;;;;;;2.42;1.08;;;9.00;37.10;;;;;;5032000;28;20197;-51
2023/03/27 07:27:50;;;;;;;5.65;2.25;;;9.00;37.40;;;;;;5031571;28;20695;-48
2023/03/27 07:30:16;;;;;;;4.43;2.07;;;8.90;37.30;;;;;;5031939;28;20190;-50
2023/03/27 07:32:43;;;;;;;3.42;1.63;;;8.90;37.50;;;;;;5031670;28;20191;-48
2023/03/27 07:35:10;;;;;;;3.05;1.67;;;8.90;37.60;;;;;;5031655;28;20578;-48
2023/03/27 07:37:37;;;;;;;2.80;1.45;;;9.00;37.30;;;;;;5031582;28;20199;-51
2023/03/27 07:40:08;;;;;;;2.40;1.30;;;9.10;37.70;;;;;;5031656;28;20723;-51
2023/03/27 07:42:34;;;;;;;4.30;1.33;;;9.20;36.90;;;;;;5035004;28;20168;-48
2023/03/27 07:45:01;;;;;;;1.88;1.40;;;9.30;37.20;;;;;;5035415;28;20186;-48
2023/03/27 07:47:27;;;;;;;2.35;1.55;;;9.40;36.40;;;;;;5035421;28;20212;-50
2023/03/27 07:49:53;;;;;;;8.83;2.30;;;9.50;36.20;;;;;;5035440;28;20181;-48
2023/03/27 07:52:19;;;;;;;3.60;1.52;;;9.50;36.60;;;;;;5035558;28;20526;-48
2023/03/27 07:54:46;;;;;;;2.20;1.37;;;9.60;36.50;;;;;;5035372;28;20259;-51
2023/03/27 07:57:14;;;;;;;3.53;2.00;;;9.70;36.60;;;;;;5035385;28;20178;-49
2023/03/27 07:59:40;;;;;;;3.40;1.70;;;9.80;36.10;;;;;;5035459;28;20261;-48
2023/03/27 08:02:08;;;;;;;4.43;2.95;;;9.90;35.80;;;;;;5035150;28;20192;-51
2023/03/27 08:04:35;;;;;;;4.45;2.13;;;9.90;34.80;;;;;;5035447;28;20188;-49
2023/03/27 08:07:01;;;;;;;3.97;1.95;;;9.80;34.20;;;;;;5035026;28;20177;-49
2023/03/27 08:09:27;;;;;;;13.60;4.80;;;9.80;35.20;;;;;;5035250;28;20257;-51
2023/03/27 08:11:52;;;;;;;4.13;2.03;;;9.80;35.00;;;;;;5035133;28;20176;-49
2023/03/27 08:14:18;;;;;;;3.07;1.80;;;9.80;34.60;;;;;;5035169;28;20758;-49
2023/03/27 08:16:44;;;;;;;1.93;1.30;;;9.80;34.00;;;;;;5034950;28;20690;-51
2023/03/27 08:19:10;;;;;;;3.13;1.75;;;9.70;34.50;;;;;;5034784;28;20198;-48
2023/03/27 08:21:36;;;;;;;2.80;2.17;;;9.70;33.80;;;;;;5034857;28;20795;-47
2023/03/27 08:24:03;;;;;;;3.35;1.80;;;9.50;33.60;;;;;;5034767;28;20272;-50
2023/03/27 08:26:32;;;;;;;2.08;1.38;;;9.50;34.00;;;;;;5034513;28;20567;-49
2023/03/27 08:28:59;;;;;;;4.00;2.05;;;9.50;34.80;;;;;;5034597;28;20196;-48
2023/03/27 08:31:26;;;;;;;1.63;1.23;;;9.80;35.60;;;;;;5035005;28;20177;-50
2023/03/27 08:33:52;;;;;;;1.83;1.45;;;10.00;33.40;;;;;;5034584;28;20174;-48
2023/03/27 08:36:18;;;;;;;2.03;1.20;;;10.30;34.60;;;;;;5034341;28;20193;-49
2023/03/27 08:38:45;;;;;;;1.60;0.95;;;10.50;32.90;;;;;;5034523;28;20860;-49
2023/03/27 08:41:30;;;;;;;2.13;1.50;;;10.70;32.00;;;;;;5034404;28;20527;-51
2023/03/27 08:43:59;;;;;;;8.10;1.98;;;10.70;30.80;;;;;;5048916;28;20177;-49
2023/03/27 08:46:29;;;;;;;4.63;1.80;;;10.60;32.10;;;;;;5034174;28;20225;-48
2023/03/27 08:49:06;;;;;;;2.60;1.63;;;10.60;33.00;;;;;;5034381;28;20712;-48
2023/03/27 08:51:45;;;;;;;3.22;1.77;;;10.50;31.60;;;;;;5034369;28;20154;-48
2023/03/27 08:54:17;;;;;;;1.70;1.30;;;10.40;32.80;;;;;;5033166;28;20174;-50
2023/03/27 08:56:44;;;;;;;2.67;1.15;;;10.40;32.40;;;;;;5034310;28;20587;-48
2023/03/27 08:59:13;;;;;;;2.63;1.17;;;10.40;33.00;;;;;;5034125;28;20200;-51
2023/03/27 09:02:07;;;;;;;4.00;1.90;;;10.30;32.10;;;;;;5034180;28;20199;-51
2023/03/27 09:04:47;;;;;;;2.17;1.50;;;10.30;32.90;;;;;;5033092;28;20600;-47
2023/03/27 09:07:48;;;;;;;6.18;1.80;;;10.40;32.20;;;;;;5034159;28;20157;-51
2023/03/27 09:10:31;;;;;;;3.53;1.95;;;10.70;33.40;;;;;;5032472;28;20232;-49
2023/03/27 09:13:12;;;;;;;2.58;1.65;;;10.80;32.30;;;;;;5034039;28;20529;-50
2023/03/27 09:15:56;;;;;;;3.47;1.73;;;11.10;34.70;;;;;;5033797;28;20240;-49
2023/03/27 09:18:55;;;;;;;2.03;1.63;;;11.50;33.50;;;;;;5033515;28;20715;-51
2023/03/27 09:21:47;;;;;;;2.72;1.27;;;12.00;33.10;;;;;;5032243;28;20178;-48
2023/03/27 09:24:34;;;;;;;1.98;1.58;;;12.20;30.10;;;;;;5033885;28;20174;-50
2023/03/27 09:27:21;;;;;;;3.55;2.10;;;12.20;30.40;;;;;;5033311;28;20189;-48
2023/03/27 09:30:17;;;;;;;2.47;2.05;;;12.00;30.40;;;;;;5033553;28;20170;-50
2023/03/27 09:32:45;;;;;;;2.38;1.80;;;11.70;31.40;;;;;;5033049;28;20185;-48
2023/03/27 09:35:17;;;;;;;2.95;2.08;;;11.50;31.90;;;;;;5033442;28;20206;-50
2023/03/27 09:37:43;;;;;;;5.95;1.92;;;11.30;32.30;;;;;;5033377;28;20558;-51
2023/03/27 09:40:24;;;;;;;6.10;2.40;;;11.20;33.50;;;;;;5033396;28;20177;-49
2023/03/27 09:42:53;;;;;;;4.07;1.90;;;11.20;33.40;;;;;;5033641;28;20435;-49
2023/03/27 09:45:20;;;;;;;4.32;1.95;;;11.30;33.80;;;;;;5033241;28;20240;-51
2023/03/27 09:47:58;;;;;;;2.65;1.92;;;11.50;32.90;;;;;;5033020;28;20587;-49
2023/03/27 09:50:43;;;;;;;3.08;1.30;;;11.80;32.10;;;;;;5033225;28;20586;-51
2023/03/27 09:53:13;;;;;;;2.47;1.35;;;12.00;29.60;;;;;;5033428;28;20211;-48
2023/03/27 09:55:51;;;;;;;2.95;1.50;;;12.20;29.90;;;;;;5033369;28;20296;-50
2023/03/27 09:58:24;;;;;;;3.67;2.20;;;12.40;31.70;;;;;;5032784;28;20666;-49
2023/03/27 10:01:28;;;;;;;2.75;1.45;;;12.70;31.20;;;;;;5032944;28;20170;-51
2023/03/27 10:03:58;;;;;;;2.38;2.00;;;12.90;31.40;;;;;;5032129;28;20216;-49
2023/03/27 10:06:29;;;;;;;2.53;1.92;;;13.00;30.30;;;;;;5032642;28;20631;-49
2023/03/27 10:08:59;;;;;;;4.00;2.15;;;13.10;30.80;;;;;;5032951;28;20200;-51
2023/03/27 10:11:30;;;;;;;3.10;2.20;;;13.10;30.60;;;;;;5033077;28;20166;-48
2023/03/27 10:13:58;;;;;;;5.15;2.40;;;13.00;29.00;;;;;;5032740;28;20177;-48
2023/03/27 10:16:26;;;;;;;3.05;1.40;;;12.70;28.70;;;;;;5032554;28;20185;-50
2023/03/27 10:18:55;;;;;;;2.42;1.70;;;12.50;29.70;;;;;;5032925;28;20228;-48
2023/03/27 10:21:41;;;;;;;4.05;2.65;;;12.20;30.60;;;;;;5032705;28;20300;-51
2023/03/27 10:24:16;;;;;;;1.75;1.50;;;12.00;30.70;;;;;;5032815;28;20169;-48
2023/03/27 10:26:42;;;;;;;8.38;2.63;;;11.80;31.90;;;;;;5032360;28;20190;-51
2023/03/27 10:29:29;;;;;;;3.10;1.70;;;11.80;31.40;;;;;;5032445;28;20192;-48
2023/03/27 10:31:57;;;;;;;4.22;1.92;;;11.90;31.80;;;;;;5032610;28;20404;-48
2023/03/27 10:34:50;;;;;;;7.60;1.38;;;12.00;30.80;;;;;;5032356;28;20220;-51
2023/03/27 10:37:26;;;;;;;3.00;1.42;;;12.00;30.40;;;;;;5032294;28;20197;-49
2023/03/27 10:39:54;;;;;;;2.97;1.45;;;12.00;29.30;;;;;;5032248;28;20542;-50
2023/03/27 10:42:21;;;;;;;1.75;1.13;;;12.00;28.20;;;;;;5032575;28;20247;-49
2023/03/27 10:44:48;;;;;;;3.58;2.17;;;12.00;28.70;;;;;;5032253;28;20552;-49
2023/03/27 10:47:26;;;;;;;5.30;2.65;;;12.10;28.30;;;;;;5032172;28;20227;-48
2023/03/27 10:50:04;;;;;;;4.10;2.65;;;12.20;27.30;;;;;;5032325;28;20621;-51
2023/03/27 10:52:49;;;;;;;3.70;2.10;;;12.30;26.90;;;;;;5032428;28;20227;-48
2023/03/27 10:55:43;;;;;;;6.95;1.50;;;12.40;26.60;;;;;;5032050;28;20550;-51
2023/03/27 10:58:25;;;;;;;2.65;1.33;;;12.50;28.40;;;;;;5032072;28;20198;-49
2023/03/27 11:01:00;;;;;;;4.10;2.25;;;12.70;24.70;;;;;;5032001;28;20269;-49
2023/03/27 11:03:33;;;;;;;3.90;1.70;;;12.60;25.50;;;;;;5032115;28;20649;-49
2023/03/27 11:06:02;;;;;;;5.10;1.30;;;12.60;26.30;;;;;;5032071;28;20189;-50
2023/03/27 11:08:34;;;;;;;8.32;3.85;;;12.50;25.10;;;;;;5031747;28;20194;-49
2023/03/27 11:11:11;;;;;;;7.30;1.42;;;12.60;26.20;;;;;;5032176;28;20585;-49
2023/03/27 11:13:42;;;;;;;3.45;1.15;;;12.90;26.40;;;;;;5030629;28;20646;-49
2023/03/27 11:16:14;;;;;;;1.83;0.90;;;12.90;24.50;;;;;;5032709;28;20666;-51
2023/03/27 11:18:53;;;;;;;3.00;1.38;;;12.80;26.60;;;;;;5036016;28;20225;-48
2023/03/27 11:21:28;;;;;;;3.40;1.15;;;12.90;26.80;;;;;;5035993;28;20526;-51
2023/03/27 11:23:57;;;;;;;4.28;1.20;;;13.10;27.00;;;;;;5035858;28;20191;-49
2023/03/27 11:26:36;;;;;;;3.85;1.50;;;13.30;26.00;;;;;;5035729;28;20213;-51
2023/03/27 11:29:13;;;;;;;4.00;1.65;;;13.60;25.60;;;;;;5035792;28;20523;-50
2023/03/27 11:31:45;;;;;;;3.60;1.42;;;13.70;25.20;;;;;;5035858;28;20166;-48
2023/03/27 11:34:17;;;;;;;1.83;0.88;;;14.10;24.20;;;;;;5035648;28;20516;-50
2023/03/27 11:36:43;;;;;;;2.60;1.40;;;14.40;24.00;;;;;;5035695;28;20174;-52
2023/03/27 11:39:14;;;;;;;3.15;1.48;;;14.30;21.90;;;;;;5035526;28;20205;-50
2023/03/27 11:41:44;;;;;;;3.13;1.67;;;14.40;20.90;;;;;;5035664;28;20224;-52
2023/03/27 11:44:10;;;;;;;2.63;1.50;;;14.40;21.90;;;;;;5035668;28;20178;-52
2023/03/27 11:46:52;;;;;;;2.47;2.00;;;14.30;20.20;;;;;;5035308;28;20181;-48
2023/03/27 11:49:33;;;;;;;3.75;1.50;;;14.20;22.20;;;;;;5035466;28;20420;-53
2023/03/27 11:52:14;;;;;;;1.98;1.77;;;14.40;25.00;;;;;;5035492;28;20255;-48
2023/03/27 11:55:05;;;;;;;6.78;1.50;;;14.40;22.60;;;;;;5035731;28;20197;-51
2023/03/27 11:57:38;;;;;;;3.28;1.70;;;14.30;22.20;;;;;;5035057;28;20546;-53
2023/03/27 12:00:23;;;;;;;6.30;1.73;;;13.90;23.60;;;;;;5035418;28;20224;-53
2023/03/27 12:03:21;;;;;;;3.25;1.20;;;13.70;24.10;;;;;;5035657;28;20162;-50
2023/03/27 12:06:23;;;;;;;3.45;2.30;;;13.70;25.40;;;;;;5035502;28;20174;-51
2023/03/27 12:09:12;;;;;;;4.90;1.45;;;14.00;26.50;;;;;;5034580;28;20205;-48
2023/03/27 12:11:45;;;;;;;2.72;1.40;;;14.40;26.00;;;;;;5035026;28;20170;-49
2023/03/27 12:14:31;;;;;;;3.78;1.80;;;14.50;23.90;;;;;;5034958;28;20186;-52
2023/03/27 12:17:29;;;;;;;5.80;2.10;;;14.80;26.20;;;;;;5035153;28;20185;-48
2023/03/27 12:20:25;;;;;;;4.85;1.85;;;15.20;24.80;;;;;;5035008;28;20174;-51
2023/03/27 12:23:11;;;;;;;3.65;1.63;;;15.50;22.00;;;;;;5034865;28;20177;-51
2023/03/27 12:25:53;;;;;;;2.78;1.52;;;15.60;21.30;;;;;;5034850;28;20193;-51
2023/03/27 12:28:46;;;;;;;2.08;1.60;;;15.80;20.60;;;;;;5034505;28;20190;-49
2023/03/27 12:31:29;;;;;;;2.75;1.60;;;15.80;19.70;;;;;;5034664;28;20166;-51
2023/03/27 12:34:22;;;;;;;3.65;1.73;;;15.50;20.60;;;;;;5034849;28;20178;-48
2023/03/27 12:36:49;;;;;;;7.70;2.20;;;15.40;22.10;;;;;;5034328;28;20158;-50
2023/03/27 12:39:23;;;;;;;7.00;1.80;;;15.30;20.90;;;;;;5034752;28;20202;-51
2023/03/27 12:41:49;;;;;;;3.60;2.03;;;15.10;21.40;;;;;;5034588;28;20173;-52
2023/03/27 12:44:18;;;;;;;2.10;1.50;;;15.00;21.80;;;;;;5034572;28;20251;-49
2023/03/27 12:47:16;;;;;;;2.45;1.60;;;15.20;23.50;;;;;;5034169;28;20397;-49
2023/03/27 12:49:45;;;;;;;2.58;1.30;;;15.70;23.50;;;;;;5034756;28;20180;-49
2023/03/27 12:52:11;;;;;;;6.68;1.70;;;15.90;22.70;;;;;;5034165;28;20646;-51
2023/03/27 12:54:38;;;;;;;2.90;1.58;;;16.30;22.00;;;;;;5034193;28;20216;-48
2023/03/27 12:57:07;;;;;;;5.10;2.13;;;16.50;20.00;;;;;;5034249;28;20252;-50
2023/03/27 12:59:47;;;;;;;4.93;1.90;;;16.30;19.10;;;;;;5034435;28;20546;-51
2023/03/27 13:02:41;;;;;;;4.60;1.75;;;15.80;20.00;;;;;;5034473;28;20186;-48
2023/03/27 13:05:08;;;;;;;7.85;2.58;;;15.10;19.10;;;;;;5034378;28;20172;-52
2023/03/27 13:07:37;;;;;;;3.42;2.22;;;14.60;20.00;;;;;;5033733;28;20212;-48
2023/03/27 13:10:03;;;;;;;3.10;1.58;;;14.50;21.00;;;;;;5033838;28;20181;-48
2023/03/27 13:12:47;;;;;;;4.32;1.90;;;14.40;22.50;;;;;;5033945;28;20221;-51
2023/03/27 13:15:28;;;;;;;3.22;2.08;;;14.40;21.10;;;;;;5047996;28;20198;-50
2023/03/27 13:18:15;;;;;;;3.72;2.03;;;14.30;19.90;;;;;;5033579;28;20659;-48
2023/03/27 13:20:59;;;;;;;3.65;1.63;;;14.10;21.20;;;;;;5033837;28;20196;-48